createdAt,value
2019-01-12T12:40:27.625Z,95.40
2019-01-12T12:42:55.868Z,95.30
2019-01-12T12:45:30.408Z,95.30
2019-01-12T12:47:58.385Z,95.30
2019-01-12T12:50:44.725Z,95.30
2019-01-12T12:53:12.935Z,95.30
2019-01-12T12:55:40.874Z,95.30
2019-01-12T12:58:08.767Z,95.30
2019-01-12T13:05:41.065Z,95.30
2019-01-12T13:10:44.071Z,95.30
2019-01-12T13:15:47.224Z,95.30
2019-01-12T13:20:50.301Z,95.30
2019-01-12T13:25:53.358Z,95.30
2019-01-12T13:30:56.334Z,95.30
2019-01-12T13:35:59.496Z,95.40
2019-01-12T13:41:02.433Z,95.40
2019-01-12T13:46:06.288Z,95.40
2019-01-12T13:51:09.189Z,95.50
2019-01-12T13:56:12.217Z,95.50
2019-01-12T14:01:16.222Z,95.60
2019-01-12T14:06:19.663Z,95.50
2019-01-12T14:11:24.360Z,95.50
2019-01-12T14:16:28.735Z,95.50
2019-01-12T14:21:32.378Z,95.40
2019-01-12T14:26:35.501Z,95.40
2019-01-12T14:31:38.461Z,95.40
2019-01-12T14:36:41.823Z,95.30
2019-01-12T14:41:46.628Z,95.30
2019-01-12T14:46:49.714Z,95.20
2019-01-12T14:51:52.856Z,95.20
2019-01-12T14:56:55.828Z,95.40
2019-01-12T15:01:59.312Z,95.10
2019-01-12T15:07:02.445Z,95.10
2019-01-12T15:12:05.357Z,95.10
2019-01-12T15:17:08.945Z,95.10
2019-01-12T15:22:11.909Z,95.00
2019-01-12T15:27:14.851Z,95.00
2019-01-12T15:32:17.725Z,95.00
2019-01-12T15:37:20.841Z,95.00
2019-01-12T15:42:23.962Z,94.90
2019-01-12T15:47:26.968Z,95.00
2019-01-12T15:52:29.947Z,94.90
2019-01-12T15:57:33.445Z,94.90
2019-01-12T16:02:40.016Z,94.70
2019-01-12T16:07:41.820Z,94.80
2019-01-12T16:12:45.255Z,94.90
2019-01-12T16:17:49.154Z,95.00
2019-01-12T16:22:52.654Z,95.00
2019-01-12T16:27:56.068Z,95.00
2019-01-12T16:32:59.128Z,95.10
2019-01-12T16:38:02.663Z,95.00
2019-01-12T16:43:06.009Z,95.10
2019-01-12T16:48:09.200Z,95.10
2019-01-12T16:53:12.473Z,95.20
2019-01-12T16:58:15.514Z,95.10
2019-01-12T17:03:18.689Z,95.10
2019-01-12T17:08:21.610Z,95.10
2019-01-12T17:13:25.026Z,95.00
2019-01-12T17:18:28.072Z,94.80
2019-01-12T17:23:31.248Z,94.60
2019-01-12T17:28:37.437Z,94.60
2019-01-12T17:33:38.887Z,94.60
2019-01-12T17:38:41.790Z,94.80
2019-01-12T17:43:44.689Z,94.90
2019-01-12T17:48:47.722Z,94.80
2019-01-12T17:53:50.745Z,94.80
2019-01-12T17:58:53.641Z,94.80
2019-01-12T18:03:56.494Z,94.80
2019-01-12T18:08:59.617Z,94.80
2019-01-12T18:14:02.530Z,94.70
2019-01-12T18:19:05.395Z,94.60
2019-01-12T18:24:26.737Z,94.60
2019-01-12T18:29:29.667Z,94.60
2019-01-12T18:34:32.601Z,94.90
2019-01-12T18:39:36.127Z,94.60
2019-01-12T18:44:39.146Z,94.60
2019-01-12T18:49:42.087Z,94.50
2019-01-12T18:54:45.124Z,94.40
2019-01-12T18:59:48.170Z,94.40
2019-01-12T19:04:51.499Z,94.30
2019-01-12T19:09:54.772Z,94.30
2019-01-12T19:14:57.880Z,94.30
2019-01-12T19:20:02.749Z,94.30
2019-01-12T19:25:06.364Z,94.30
2019-01-12T19:30:13.516Z,94.20
2019-01-12T19:35:16.462Z,94.20
2019-01-12T19:40:22.356Z,94.20
2019-01-12T19:45:25.297Z,94.20
2019-01-12T19:50:28.564Z,94.20
2019-01-12T19:55:31.473Z,94.20
2019-01-12T20:00:34.595Z,94.10
2019-01-12T20:05:37.970Z,94.10
2019-01-12T20:10:40.918Z,94.00
2019-01-12T20:15:43.845Z,94.00
2019-01-12T20:20:46.780Z,93.90
2019-01-12T20:25:49.723Z,93.90
2019-01-12T20:31:33.391Z,93.90
2019-01-12T20:37:46.970Z,93.90
2019-01-12T20:43:41.945Z,94.00
2019-01-12T20:49:28.339Z,93.90
2019-01-12T20:55:15.185Z,93.80
2019-01-12T21:00:57.318Z,93.80
2019-01-12T21:06:55.656Z,93.80
2019-01-12T21:13:03.554Z,93.80
2019-01-12T21:18:06.735Z,93.80
2019-01-12T21:23:09.968Z,93.80
2019-01-12T21:28:13.329Z,93.80
2019-01-12T21:33:16.211Z,93.80
2019-01-12T21:38:19.115Z,93.80
2019-01-12T21:43:22.116Z,93.70
2019-01-12T21:48:25.020Z,93.70
2019-01-12T21:53:28.024Z,93.60
2019-01-12T21:58:30.883Z,93.60
2019-01-12T22:03:33.754Z,93.60
2019-01-12T22:08:36.792Z,93.60
2019-01-12T22:13:39.766Z,93.60
2019-01-12T22:18:42.694Z,93.60
2019-01-12T22:23:45.565Z,93.60
2019-01-12T22:28:48.467Z,93.70
2019-01-12T22:33:51.352Z,93.80
2019-01-12T22:38:54.340Z,93.90
2019-01-12T22:43:57.603Z,94.00
2019-01-12T22:49:00.648Z,94.10
2019-01-12T22:54:03.867Z,94.10
2019-01-12T22:59:06.736Z,94.20
2019-01-12T23:04:10.058Z,94.40
2019-01-12T23:09:14.611Z,94.40
2019-01-12T23:14:17.513Z,94.50
2019-01-12T23:19:20.412Z,94.50
2019-01-12T23:24:23.474Z,94.50
2019-01-12T23:29:29.429Z,94.50
2019-01-12T23:34:32.528Z,94.50
2019-01-12T23:39:35.495Z,94.60
2019-01-12T23:44:38.493Z,94.60
2019-01-12T23:49:41.441Z,94.60
2019-01-12T23:54:44.354Z,94.70
2019-01-12T23:59:47.311Z,94.80
